Boston Harbor, Washington
Current Conditions -  °F | °C
As of 2:01 AM on Saturday 20 Dec 2014 (Local Time) from KOLM Reporting Station
Light Rain Light Rain  
Wind Chill: 42°   Ceiling: 2600
Heat Index: 46°   Visibility: 10mi
Dew Point: 42°   Wind: 8mph
Humidity: 86%   Direction: 180°S
Pressure: 29.78"   Gusts: NA
Location:  46.9755°N, 122.872°W
Report Text: KOLM 201001Z AUTO 18007KT 10SM -RA BKN026 BKN031 OVC070 08/06 A2978 RMK AO2 P0000 T00780056
Loading
Personal Weather Stations






























Interactive Weather Map New forecast layout! Learn more

10-Day Weather Forecast

Advertisements
Track Severe Weather on mobile